sensor_id;sensor_type;location;lat;lon;timestamp;pressure;altitude;pressure_sealevel;temperature;humidity
16120;BME280;12670;53.502;10.252;2023-02-28T00:02:58;102801.19;;;3.95;82.93
16120;BME280;12670;53.502;10.252;2023-02-28T00:06:03;102801.19;;;3.95;82.72
16120;BME280;12670;53.502;10.252;2023-02-28T00:09:06;102808.38;;;4.07;82.19
16120;BME280;12670;53.502;10.252;2023-02-28T00:12:09;102797.56;;;3.88;82.88
16120;BME280;12670;53.502;10.252;2023-02-28T00:15:12;102792.25;;;3.87;82.05
16120;BME280;12670;53.502;10.252;2023-02-28T00:18:15;102797.22;;;3.70;82.18
16120;BME280;12670;53.502;10.252;2023-02-28T00:21:19;102798.13;;;3.72;82.53
16120;BME280;12670;53.502;10.252;2023-02-28T00:24:22;102805.88;;;3.66;82.12
16120;BME280;12670;53.502;10.252;2023-02-28T00:27:25;102798.84;;;3.65;82.51
16120;BME280;12670;53.502;10.252;2023-02-28T00:30:28;102794.88;;;3.41;82.78
16120;BME280;12670;53.502;10.252;2023-02-28T00:33:30;102800.69;;;3.28;83.22
16120;BME280;12670;53.502;10.252;2023-02-28T00:36:34;102799.75;;;3.23;84.05
16120;BME280;12670;53.502;10.252;2023-02-28T00:39:38;102800.13;;;3.01;84.09
16120;BME280;12670;53.502;10.252;2023-02-28T00:42:41;102801.66;;;2.91;84.39
16120;BME280;12670;53.502;10.252;2023-02-28T00:45:44;102799.00;;;2.89;84.13
16120;BME280;12670;53.502;10.252;2023-02-28T00:48:47;102806.69;;;2.82;84.40
16120;BME280;12670;53.502;10.252;2023-02-28T00:51:51;102809.25;;;2.80;84.95
16120;BME280;12670;53.502;10.252;2023-02-28T00:54:54;102818.81;;;2.77;84.70
16120;BME280;12670;53.502;10.252;2023-02-28T00:57:57;102820.94;;;2.57;85.46
16120;BME280;12670;53.502;10.252;2023-02-28T01:01:00;102819.53;;;2.71;85.06
16120;BME280;12670;53.502;10.252;2023-02-28T01:04:03;102818.38;;;2.58;85.72
16120;BME280;12670;53.502;10.252;2023-02-28T01:07:07;102818.31;;;2.57;86.32
16120;BME280;12670;53.502;10.252;2023-02-28T01:10:10;102821.75;;;2.54;86.49
16120;BME280;12670;53.502;10.252;2023-02-28T01:13:13;102824.88;;;2.39;86.53
16120;BME280;12670;53.502;10.252;2023-02-28T01:16:16;102823.28;;;2.46;86.23
16120;BME280;12670;53.502;10.252;2023-02-28T01:19:19;102827.47;;;2.39;86.25
16120;BME280;12670;53.502;10.252;2023-02-28T01:22:23;102833.44;;;2.34;86.67
16120;BME280;12670;53.502;10.252;2023-02-28T01:25:26;102837.03;;;2.36;86.87
16120;BME280;12670;53.502;10.252;2023-02-28T01:28:28;102828.94;;;2.28;87.16
16120;BME280;12670;53.502;10.252;2023-02-28T01:31:31;102830.66;;;2.26;86.52
16120;BME280;12670;53.502;10.252;2023-02-28T01:34:34;102827.28;;;2.30;86.56
16120;BME280;12670;53.502;10.252;2023-02-28T01:37:38;102832.34;;;2.24;86.50
16120;BME280;12670;53.502;10.252;2023-02-28T01:40:41;102822.09;;;2.33;86.46
16120;BME280;12670;53.502;10.252;2023-02-28T01:43:58;102816.75;;;2.29;86.65
16120;BME280;12670;53.502;10.252;2023-02-28T01:47:04;102820.25;;;2.29;86.38
16120;BME280;12670;53.502;10.252;2023-02-28T01:50:10;102826.16;;;2.22;86.56
16120;BME280;12670;53.502;10.252;2023-02-28T01:53:18;102820.94;;;2.22;86.11
16120;BME280;12670;53.502;10.252;2023-02-28T01:56:24;102819.25;;;2.24;86.31
16120;BME280;12670;53.502;10.252;2023-02-28T01:59:33;102816.47;;;2.18;86.71
16120;BME280;12670;53.502;10.252;2023-02-28T02:02:37;102814.72;;;2.17;86.51
16120;BME280;12670;53.502;10.252;2023-02-28T02:05:41;102810.06;;;2.07;86.18
16120;BME280;12670;53.502;10.252;2023-02-28T02:08:50;102816.38;;;2.15;86.10
16120;BME280;12670;53.502;10.252;2023-02-28T02:11:55;102819.53;;;2.02;86.22
16120;BME280;12670;53.502;10.252;2023-02-28T02:15:05;102824.78;;;2.02;86.37
16120;BME280;12670;53.502;10.252;2023-02-28T02:18:17;102812.38;;;1.95;86.63
16120;BME280;12670;53.502;10.252;2023-02-28T02:21:55;102814.81;;;1.89;86.50
16120;BME280;12670;53.502;10.252;2023-02-28T02:25:21;102813.22;;;1.94;86.33
16120;BME280;12670;53.502;10.252;2023-02-28T02:28:46;102813.44;;;2.03;86.10
16120;BME280;12670;53.502;10.252;2023-02-28T02:32:20;102814.13;;;1.96;85.92
16120;BME280;12670;53.502;10.252;2023-02-28T02:35:31;102808.41;;;1.77;86.90
16120;BME280;12670;53.502;10.252;2023-02-28T02:38:43;102811.03;;;1.77;87.13
16120;BME280;12670;53.502;10.252;2023-02-28T02:41:52;102812.25;;;1.90;86.61
16120;BME280;12670;53.502;10.252;2023-02-28T02:44:59;102822.72;;;1.90;85.85
16120;BME280;12670;53.502;10.252;2023-02-28T02:48:08;102814.75;;;1.87;86.28
16120;BME280;12670;53.502;10.252;2023-02-28T02:51:16;102823.41;;;1.83;86.41
16120;BME280;12670;53.502;10.252;2023-02-28T02:54:21;102823.78;;;1.65;86.82
16120;BME280;12670;53.502;10.252;2023-02-28T02:57:33;102810.84;;;1.71;87.40
16120;BME280;12670;53.502;10.252;2023-02-28T03:00:40;102810.97;;;1.76;86.95
16120;BME280;12670;53.502;10.252;2023-02-28T03:03:44;102816.66;;;1.61;86.90
16120;BME280;12670;53.502;10.252;2023-02-28T03:06:50;102813.47;;;1.71;86.73
16120;BME280;12670;53.502;10.252;2023-02-28T03:09:57;102818.44;;;1.62;86.91
16120;BME280;12670;53.502;10.252;2023-02-28T03:13:11;102804.69;;;1.69;86.76
16120;BME280;12670;53.502;10.252;2023-02-28T03:16:30;102811.56;;;1.66;86.71
16120;BME280;12670;53.502;10.252;2023-02-28T03:19:45;102816.56;;;1.58;87.63
16120;BME280;12670;53.502;10.252;2023-02-28T03:22:57;102813.06;;;1.57;87.36
16120;BME280;12670;53.502;10.252;2023-02-28T03:26:04;102810.22;;;1.48;87.26
16120;BME280;12670;53.502;10.252;2023-02-28T03:29:14;102810.19;;;1.47;87.42
16120;BME280;12670;53.502;10.252;2023-02-28T03:32:22;102801.88;;;1.31;87.90
16120;BME280;12670;53.502;10.252;2023-02-28T03:35:30;102815.50;;;1.51;87.31
16120;BME280;12670;53.502;10.252;2023-02-28T03:38:39;102815.69;;;1.57;86.96
16120;BME280;12670;53.502;10.252;2023-02-28T03:41:45;102811.09;;;1.49;87.22
16120;BME280;12670;53.502;10.252;2023-02-28T03:44:53;102819.53;;;1.40;87.50
16120;BME280;12670;53.502;10.252;2023-02-28T03:48:00;102823.53;;;1.57;86.77
16120;BME280;12670;53.502;10.252;2023-02-28T03:51:07;102821.53;;;1.47;86.93
16120;BME280;12670;53.502;10.252;2023-02-28T03:54:15;102823.69;;;1.32;87.79
16120;BME280;12670;53.502;10.252;2023-02-28T03:57:25;102825.19;;;1.24;88.22
16120;BME280;12670;53.502;10.252;2023-02-28T04:00:33;102823.91;;;1.11;88.44
16120;BME280;12670;53.502;10.252;2023-02-28T04:03:38;102819.84;;;1.21;88.52
16120;BME280;12670;53.502;10.252;2023-02-28T04:06:42;102820.38;;;1.09;88.45
16120;BME280;12670;53.502;10.252;2023-02-28T04:09:46;102820.72;;;1.21;88.32
16120;BME280;12670;53.502;10.252;2023-02-28T04:12:49;102822.75;;;1.30;87.43
16120;BME280;12670;53.502;10.252;2023-02-28T04:15:51;102823.72;;;1.33;86.90
16120;BME280;12670;53.502;10.252;2023-02-28T04:18:54;102828.78;;;1.29;86.54
16120;BME280;12670;53.502;10.252;2023-02-28T04:22:03;102822.44;;;1.19;87.17
16120;BME280;12670;53.502;10.252;2023-02-28T04:25:08;102819.63;;;1.13;87.28
16120;BME280;12670;53.502;10.252;2023-02-28T04:28:10;102814.38;;;1.12;87.16
16120;BME280;12670;53.502;10.252;2023-02-28T04:31:13;102828.75;;;0.99;88.39
16120;BME280;12670;53.502;10.252;2023-02-28T04:34:16;102823.09;;;1.12;87.83
16120;BME280;12670;53.502;10.252;2023-02-28T04:37:20;102821.47;;;1.17;86.92
16120;BME280;12670;53.502;10.252;2023-02-28T04:40:30;102818.22;;;1.24;86.03
16120;BME280;12670;53.502;10.252;2023-02-28T04:43:33;102818.97;;;1.20;85.62
16120;BME280;12670;53.502;10.252;2023-02-28T04:46:35;102818.59;;;1.08;86.43
16120;BME280;12670;53.502;10.252;2023-02-28T04:49:39;102824.72;;;0.82;88.09
16120;BME280;12670;53.502;10.252;2023-02-28T04:52:42;102818.63;;;0.81;87.88
16120;BME280;12670;53.502;10.252;2023-02-28T04:55:46;102821.50;;;0.89;88.67
16120;BME280;12670;53.502;10.252;2023-02-28T04:58:49;102829.19;;;0.84;88.04
16120;BME280;12670;53.502;10.252;2023-02-28T05:01:54;102831.94;;;0.89;87.82
16120;BME280;12670;53.502;10.252;2023-02-28T05:04:57;102834.22;;;0.78;88.28
16120;BME280;12670;53.502;10.252;2023-02-28T05:07:59;102838.66;;;0.80;88.58
16120;BME280;12670;53.502;10.252;2023-02-28T05:11:14;102840.41;;;0.82;88.84
16120;BME280;12670;53.502;10.252;2023-02-28T05:14:16;102837.97;;;0.59;89.05
16120;BME280;12670;53.502;10.252;2023-02-28T05:17:19;102832.09;;;0.66;88.96
16120;BME280;12670;53.502;10.252;2023-02-28T05:20:22;102829.75;;;0.75;88.68
16120;BME280;12670;53.502;10.252;2023-02-28T05:23:24;102837.75;;;0.80;87.99
16120;BME280;12670;53.502;10.252;2023-02-28T05:26:30;102846.47;;;0.80;87.85
16120;BME280;12670;53.502;10.252;2023-02-28T05:29:32;102845.44;;;0.75;88.03
16120;BME280;12670;53.502;10.252;2023-02-28T05:32:35;102848.91;;;0.74;88.15
16120;BME280;12670;53.502;10.252;2023-02-28T05:35:38;102843.00;;;0.53;88.64
16120;BME280;12670;53.502;10.252;2023-02-28T05:38:41;102845.06;;;0.63;88.99
16120;BME280;12670;53.502;10.252;2023-02-28T05:41:45;102843.41;;;0.65;88.82
16120;BME280;12670;53.502;10.252;2023-02-28T05:44:48;102848.31;;;0.56;88.76
16120;BME280;12670;53.502;10.252;2023-02-28T05:47:53;102846.13;;;0.43;88.88
16120;BME280;12670;53.502;10.252;2023-02-28T05:50:57;102846.13;;;0.43;88.66
16120;BME280;12670;53.502;10.252;2023-02-28T05:54:00;102850.84;;;0.53;88.87
16120;BME280;12670;53.502;10.252;2023-02-28T05:57:04;102846.91;;;0.40;88.42
16120;BME280;12670;53.502;10.252;2023-02-28T06:00:23;102859.63;;;0.30;88.91
16120;BME280;12670;53.502;10.252;2023-02-28T06:03:26;102857.94;;;0.32;89.64
16120;BME280;12670;53.502;10.252;2023-02-28T06:06:29;102862.31;;;0.33;89.27
16120;BME280;12670;53.502;10.252;2023-02-28T06:09:32;102852.31;;;0.46;88.63
16120;BME280;12670;53.502;10.252;2023-02-28T06:12:37;102864.47;;;0.44;88.58
16120;BME280;12670;53.502;10.252;2023-02-28T06:15:40;102869.47;;;0.38;89.14
16120;BME280;12670;53.502;10.252;2023-02-28T06:18:43;102870.47;;;0.42;89.23
16120;BME280;12670;53.502;10.252;2023-02-28T06:21:49;102870.78;;;0.51;88.56
16120;BME280;12670;53.502;10.252;2023-02-28T06:24:52;102872.97;;;0.39;89.00
16120;BME280;12670;53.502;10.252;2023-02-28T06:27:57;102880.03;;;0.41;88.01
16120;BME280;12670;53.502;10.252;2023-02-28T06:31:06;102877.13;;;0.34;89.32
16120;BME280;12670;53.502;10.252;2023-02-28T06:34:09;102882.38;;;0.34;89.02
16120;BME280;12670;53.502;10.252;2023-02-28T06:37:12;102874.22;;;0.24;89.70
16120;BME280;12670;53.502;10.252;2023-02-28T06:40:15;102880.72;;;0.36;89.29
16120;BME280;12670;53.502;10.252;2023-02-28T06:43:19;102879.97;;;0.40;89.08
16120;BME280;12670;53.502;10.252;2023-02-28T06:46:22;102883.16;;;0.31;89.34
16120;BME280;12670;53.502;10.252;2023-02-28T06:49:25;102883.00;;;0.26;89.47
16120;BME280;12670;53.502;10.252;2023-02-28T06:52:28;102883.81;;;0.51;90.04
16120;BME280;12670;53.502;10.252;2023-02-28T06:55:31;102882.78;;;0.46;89.47
16120;BME280;12670;53.502;10.252;2023-02-28T06:58:36;102882.00;;;0.48;89.78
16120;BME280;12670;53.502;10.252;2023-02-28T07:01:40;102887.66;;;0.61;89.85
16120;BME280;12670;53.502;10.252;2023-02-28T07:04:43;102886.56;;;0.54;89.55
16120;BME280;12670;53.502;10.252;2023-02-28T07:07:46;102886.97;;;0.66;89.63
16120;BME280;12670;53.502;10.252;2023-02-28T07:10:51;102882.63;;;0.67;89.89
16120;BME280;12670;53.502;10.252;2023-02-28T07:13:56;102901.06;;;0.71;90.40
16120;BME280;12670;53.502;10.252;2023-02-28T07:16:59;102897.81;;;0.78;90.33
16120;BME280;12670;53.502;10.252;2023-02-28T07:20:02;102894.47;;;0.83;89.91
16120;BME280;12670;53.502;10.252;2023-02-28T07:23:05;102901.03;;;0.97;90.18
16120;BME280;12670;53.502;10.252;2023-02-28T07:26:11;102892.38;;;0.99;90.66
16120;BME280;12670;53.502;10.252;2023-02-28T07:29:17;102894.31;;;1.05;90.63
16120;BME280;12670;53.502;10.252;2023-02-28T07:32:20;102896.88;;;1.03;90.36
16120;BME280;12670;53.502;10.252;2023-02-28T07:35:23;102892.84;;;1.13;90.33
16120;BME280;12670;53.502;10.252;2023-02-28T07:38:25;102888.00;;;1.25;89.93
16120;BME280;12670;53.502;10.252;2023-02-28T07:41:28;102894.31;;;1.33;90.54
16120;BME280;12670;53.502;10.252;2023-02-28T07:44:33;102884.16;;;1.43;90.07
16120;BME280;12670;53.502;10.252;2023-02-28T07:47:35;102887.16;;;1.56;90.48
16120;BME280;12670;53.502;10.252;2023-02-28T07:50:38;102900.47;;;1.64;89.75
16120;BME280;12670;53.502;10.252;2023-02-28T07:53:41;102898.00;;;1.69;90.33
16120;BME280;12670;53.502;10.252;2023-02-28T07:56:43;102894.16;;;1.87;90.88
16120;BME280;12670;53.502;10.252;2023-02-28T07:59:48;102895.38;;;1.99;90.52
16120;BME280;12670;53.502;10.252;2023-02-28T08:02:50;102894.81;;;2.10;90.22
16120;BME280;12670;53.502;10.252;2023-02-28T08:05:53;102902.28;;;2.28;90.01
16120;BME280;12670;53.502;10.252;2023-02-28T08:08:56;102906.09;;;2.39;89.94
16120;BME280;12670;53.502;10.252;2023-02-28T08:11:58;102899.66;;;2.61;89.76
16120;BME280;12670;53.502;10.252;2023-02-28T08:15:03;102903.63;;;2.80;88.82
16120;BME280;12670;53.502;10.252;2023-02-28T08:18:06;102898.53;;;2.86;88.87
16120;BME280;12670;53.502;10.252;2023-02-28T08:21:11;102910.03;;;2.91;88.36
16120;BME280;12670;53.502;10.252;2023-02-28T08:24:13;102907.69;;;3.04;88.08
16120;BME280;12670;53.502;10.252;2023-02-28T08:27:16;102916.13;;;3.27;87.21
16120;BME280;12670;53.502;10.252;2023-02-28T08:30:20;102911.22;;;3.42;86.10
16120;BME280;12670;53.502;10.252;2023-02-28T08:33:23;102908.97;;;3.59;84.66
16120;BME280;12670;53.502;10.252;2023-02-28T08:36:26;102910.28;;;3.79;83.74
16120;BME280;12670;53.502;10.252;2023-02-28T08:39:30;102917.41;;;3.86;83.67
16120;BME280;12670;53.502;10.252;2023-02-28T08:42:32;102919.28;;;3.92;80.96
16120;BME280;12670;53.502;10.252;2023-02-28T08:45:37;102915.97;;;3.99;79.14
16120;BME280;12670;53.502;10.252;2023-02-28T08:48:40;102927.72;;;4.18;78.40
16120;BME280;12670;53.502;10.252;2023-02-28T08:51:42;102927.88;;;4.27;78.45
16120;BME280;12670;53.502;10.252;2023-02-28T08:54:46;102925.72;;;4.51;77.52
16120;BME280;12670;53.502;10.252;2023-02-28T08:57:49;102918.94;;;4.66;77.32
16120;BME280;12670;53.502;10.252;2023-02-28T09:00:53;102918.28;;;4.79;74.69
16120;BME280;12670;53.502;10.252;2023-02-28T09:03:57;102918.47;;;4.90;74.66
16120;BME280;12670;53.502;10.252;2023-02-28T09:07:00;102921.31;;;5.02;72.10
16120;BME280;12670;53.502;10.252;2023-02-28T09:10:03;102921.50;;;5.16;70.30
16120;BME280;12670;53.502;10.252;2023-02-28T09:13:06;102922.53;;;5.22;71.09
16120;BME280;12670;53.502;10.252;2023-02-28T09:16:12;102919.13;;;5.32;68.97
16120;BME280;12670;53.502;10.252;2023-02-28T09:19:15;102921.28;;;5.59;67.25
16120;BME280;12670;53.502;10.252;2023-02-28T09:22:18;102923.28;;;5.76;66.22
16120;BME280;12670;53.502;10.252;2023-02-28T09:25:21;102924.97;;;5.74;64.39
16120;BME280;12670;53.502;10.252;2023-02-28T09:28:24;102926.88;;;5.85;62.30
16120;BME280;12670;53.502;10.252;2023-02-28T09:31:28;102919.91;;;5.89;62.59
16120;BME280;12670;53.502;10.252;2023-02-28T09:34:31;102925.19;;;5.87;60.89
16120;BME280;12670;53.502;10.252;2023-02-28T09:37:34;102932.41;;;6.02;60.71
16120;BME280;12670;53.502;10.252;2023-02-28T09:40:38;102931.38;;;5.91;58.14
16120;BME280;12670;53.502;10.252;2023-02-28T09:43:45;102932.81;;;6.39;58.51
16120;BME280;12670;53.502;10.252;2023-02-28T09:46:54;102927.69;;;6.51;57.63
16120;BME280;12670;53.502;10.252;2023-02-28T09:50:03;102937.47;;;6.64;56.31
16120;BME280;12670;53.502;10.252;2023-02-28T09:53:14;102935.78;;;6.70;52.42
16120;BME280;12670;53.502;10.252;2023-02-28T09:56:22;102941.22;;;6.88;51.07
16120;BME280;12670;53.502;10.252;2023-02-28T09:59:50;102938.84;;;7.21;51.35
16120;BME280;12670;53.502;10.252;2023-02-28T10:03:15;102938.25;;;7.70;49.50
16120;BME280;12670;53.502;10.252;2023-02-28T10:06:22;102933.97;;;7.92;47.65
16120;BME280;12670;53.502;10.252;2023-02-28T10:09:30;102943.75;;;8.17;47.62
16120;BME280;12670;53.502;10.252;2023-02-28T10:12:37;102937.59;;;8.31;45.63
16120;BME280;12670;53.502;10.252;2023-02-28T10:15:45;102941.97;;;8.15;46.02
16120;BME280;12670;53.502;10.252;2023-02-28T10:18:54;102935.06;;;8.78;45.50
16120;BME280;12670;53.502;10.252;2023-02-28T10:22:00;102930.59;;;9.49;43.62
16120;BME280;12670;53.502;10.252;2023-02-28T10:25:17;102930.59;;;9.58;41.87
16120;BME280;12670;53.502;10.252;2023-02-28T10:28:20;102929.63;;;9.86;42.59
16120;BME280;12670;53.502;10.252;2023-02-28T10:31:23;102930.34;;;10.22;41.94
16120;BME280;12670;53.502;10.252;2023-02-28T10:34:28;102924.94;;;10.37;40.78
16120;BME280;12670;53.502;10.252;2023-02-28T10:37:31;102931.63;;;10.93;39.94
16120;BME280;12670;53.502;10.252;2023-02-28T10:40:39;102931.41;;;11.21;39.29
16120;BME280;12670;53.502;10.252;2023-02-28T10:43:43;102927.13;;;11.89;38.60
16120;BME280;12670;53.502;10.252;2023-02-28T10:46:46;102926.22;;;13.09;37.15
16120;BME280;12670;53.502;10.252;2023-02-28T10:49:52;102929.34;;;14.22;35.72
16120;BME280;12670;53.502;10.252;2023-02-28T10:52:57;102919.16;;;15.12;35.47
16120;BME280;12670;53.502;10.252;2023-02-28T10:56:16;102925.56;;;15.73;32.41
16120;BME280;12670;53.502;10.252;2023-02-28T10:59:29;102916.44;;;16.10;32.81
16120;BME280;12670;53.502;10.252;2023-02-28T11:02:34;102918.41;;;16.61;31.43
16120;BME280;12670;53.502;10.252;2023-02-28T11:05:40;102925.00;;;16.79;30.29
16120;BME280;12670;53.502;10.252;2023-02-28T11:08:50;102925.09;;;16.76;30.31
16120;BME280;12670;53.502;10.252;2023-02-28T11:11:53;102922.28;;;17.07;30.69
16120;BME280;12670;53.502;10.252;2023-02-28T11:14:58;102921.84;;;17.19;29.16
16120;BME280;12670;53.502;10.252;2023-02-28T11:18:15;102922.84;;;17.42;29.09
16120;BME280;12670;53.502;10.252;2023-02-28T11:21:26;102922.56;;;17.49;30.00
16120;BME280;12670;53.502;10.252;2023-02-28T11:24:33;102917.69;;;17.36;29.88
16120;BME280;12670;53.502;10.252;2023-02-28T11:27:47;102913.00;;;17.16;28.89
16120;BME280;12670;53.502;10.252;2023-02-28T11:31:01;102912.75;;;17.73;28.32
16120;BME280;12670;53.502;10.252;2023-02-28T11:34:23;102911.94;;;17.95;28.62
16120;BME280;12670;53.502;10.252;2023-02-28T11:37:28;102910.28;;;18.14;29.12
16120;BME280;12670;53.502;10.252;2023-02-28T11:40:39;102903.66;;;18.01;28.18
16120;BME280;12670;53.502;10.252;2023-02-28T11:44:06;102907.25;;;17.76;27.95
16120;BME280;12670;53.502;10.252;2023-02-28T11:47:17;102907.69;;;17.64;28.25
16120;BME280;12670;53.502;10.252;2023-02-28T11:50:38;102900.91;;;17.54;28.30
16120;BME280;12670;53.502;10.252;2023-02-28T11:54:12;102891.50;;;17.17;28.94
16120;BME280;12670;53.502;10.252;2023-02-28T11:57:31;102887.09;;;16.07;29.34
16120;BME280;12670;53.502;10.252;2023-02-28T12:04:19;102879.28;;;13.50;32.15
16120;BME280;12670;53.502;10.252;2023-02-28T12:07:32;102877.06;;;14.86;31.29
16120;BME280;12670;53.502;10.252;2023-02-28T12:10:48;102873.28;;;15.60;29.38
16120;BME280;12670;53.502;10.252;2023-02-28T12:14:18;102870.97;;;16.37;29.74
16120;BME280;12670;53.502;10.252;2023-02-28T12:17:37;102864.00;;;16.86;28.33
16120;BME280;12670;53.502;10.252;2023-02-28T12:20:48;102857.34;;;16.97;28.21
16120;BME280;12670;53.502;10.252;2023-02-28T12:24:17;102844.94;;;16.93;29.81
16120;BME280;12670;53.502;10.252;2023-02-28T12:27:29;102848.72;;;16.07;28.90
16120;BME280;12670;53.502;10.252;2023-02-28T12:30:35;102839.22;;;15.03;29.42
16120;BME280;12670;53.502;10.252;2023-02-28T12:33:45;102838.00;;;14.47;34.27
16120;BME280;12670;53.502;10.252;2023-02-28T12:36:49;102843.78;;;13.88;33.36
16120;BME280;12670;53.502;10.252;2023-02-28T12:39:58;102834.47;;;13.24;33.58
16120;BME280;12670;53.502;10.252;2023-02-28T12:43:06;102831.25;;;13.05;33.76
16120;BME280;12670;53.502;10.252;2023-02-28T12:46:14;102826.63;;;13.13;35.58
16120;BME280;12670;53.502;10.252;2023-02-28T12:49:25;102822.59;;;12.92;33.58
16120;BME280;12670;53.502;10.252;2023-02-28T12:52:35;102817.50;;;13.28;33.36
16120;BME280;12670;53.502;10.252;2023-02-28T12:55:48;102808.97;;;14.31;32.97
16120;BME280;12670;53.502;10.252;2023-02-28T12:58:56;102799.75;;;15.13;31.21
16120;BME280;12670;53.502;10.252;2023-02-28T13:02:39;102793.84;;;14.32;31.16
16120;BME280;12670;53.502;10.252;2023-02-28T13:06:14;102791.09;;;16.21;31.03
16120;BME280;12670;53.502;10.252;2023-02-28T13:09:22;102784.97;;;17.21;28.79
16120;BME280;12670;53.502;10.252;2023-02-28T13:12:25;102780.00;;;17.33;28.48
16120;BME280;12670;53.502;10.252;2023-02-28T13:15:30;102777.28;;;18.46;28.16
16120;BME280;12670;53.502;10.252;2023-02-28T13:18:37;102777.59;;;18.81;26.82
16120;BME280;12670;53.502;10.252;2023-02-28T13:21:43;102773.72;;;19.27;27.13
16120;BME280;12670;53.502;10.252;2023-02-28T13:24:48;102776.22;;;19.51;27.03
16120;BME280;12670;53.502;10.252;2023-02-28T13:27:53;102781.38;;;19.36;26.79
16120;BME280;12670;53.502;10.252;2023-02-28T13:31:06;102773.03;;;19.42;25.70
16120;BME280;12670;53.502;10.252;2023-02-28T13:34:16;102766.75;;;19.42;26.86
16120;BME280;12670;53.502;10.252;2023-02-28T13:37:42;102772.50;;;19.91;26.72
16120;BME280;12670;53.502;10.252;2023-02-28T13:40:45;102775.59;;;20.19;27.09
16120;BME280;12670;53.502;10.252;2023-02-28T13:44:02;102778.97;;;19.30;26.73
16120;BME280;12670;53.502;10.252;2023-02-28T13:47:30;102776.03;;;19.16;26.32
16120;BME280;12670;53.502;10.252;2023-02-28T13:50:35;102775.50;;;19.47;26.44
16120;BME280;12670;53.502;10.252;2023-02-28T13:53:54;102784.84;;;19.78;26.26
16120;BME280;12670;53.502;10.252;2023-02-28T13:57:10;102776.94;;;19.35;24.69
16120;BME280;12670;53.502;10.252;2023-02-28T14:00:27;102772.44;;;18.97;24.90
16120;BME280;12670;53.502;10.252;2023-02-28T14:03:51;102770.56;;;18.78;26.16
16120;BME280;12670;53.502;10.252;2023-02-28T14:06:58;102777.16;;;18.07;27.25
16120;BME280;12670;53.502;10.252;2023-02-28T14:10:05;102776.59;;;17.53;27.57
16120;BME280;12670;53.502;10.252;2023-02-28T14:16:38;102781.97;;;15.72;29.82
16120;BME280;12670;53.502;10.252;2023-02-28T14:19:46;102779.44;;;15.37;30.72
16120;BME280;12670;53.502;10.252;2023-02-28T14:22:56;102784.16;;;15.27;31.72
16120;BME280;12670;53.502;10.252;2023-02-28T14:26:13;102785.63;;;15.08;31.20
16120;BME280;12670;53.502;10.252;2023-02-28T14:33:08;102783.56;;;13.78;32.49
16120;BME280;12670;53.502;10.252;2023-02-28T14:36:21;102787.34;;;13.68;32.36
16120;BME280;12670;53.502;10.252;2023-02-28T14:39:27;102782.13;;;13.62;33.06
16120;BME280;12670;53.502;10.252;2023-02-28T14:42:34;102781.88;;;13.74;33.76
16120;BME280;12670;53.502;10.252;2023-02-28T14:45:37;102778.28;;;13.75;33.59
16120;BME280;12670;53.502;10.252;2023-02-28T14:48:39;102782.31;;;13.52;32.75
16120;BME280;12670;53.502;10.252;2023-02-28T14:51:44;102783.75;;;13.69;32.73
16120;BME280;12670;53.502;10.252;2023-02-28T14:54:52;102785.22;;;13.82;32.58
16120;BME280;12670;53.502;10.252;2023-02-28T14:57:57;102779.44;;;14.00;33.14
16120;BME280;12670;53.502;10.252;2023-02-28T15:01:03;102788.91;;;13.76;32.83
16120;BME280;12670;53.502;10.252;2023-02-28T15:04:16;102782.78;;;13.73;33.14
16120;BME280;12670;53.502;10.252;2023-02-28T15:07:22;102783.75;;;13.69;33.79
16120;BME280;12670;53.502;10.252;2023-02-28T15:10:29;102777.81;;;13.95;33.41
16120;BME280;12670;53.502;10.252;2023-02-28T15:13:37;102775.00;;;13.62;34.10
16120;BME280;12670;53.502;10.252;2023-02-28T15:16:42;102775.38;;;13.45;33.14
16120;BME280;12670;53.502;10.252;2023-02-28T15:19:48;102762.47;;;12.79;34.77
16120;BME280;12670;53.502;10.252;2023-02-28T15:22:55;102765.56;;;12.00;35.37
16120;BME280;12670;53.502;10.252;2023-02-28T15:25:59;102753.69;;;11.63;37.16
16120;BME280;12670;53.502;10.252;2023-02-28T15:29:05;102745.41;;;11.21;37.10
16120;BME280;12670;53.502;10.252;2023-02-28T15:32:23;102749.97;;;11.76;36.55
16120;BME280;12670;53.502;10.252;2023-02-28T15:35:29;102749.94;;;11.78;37.32
16120;BME280;12670;53.502;10.252;2023-02-28T15:38:35;102740.50;;;12.17;37.39
16120;BME280;12670;53.502;10.252;2023-02-28T15:41:38;102748.47;;;12.68;35.79
16120;BME280;12670;53.502;10.252;2023-02-28T15:44:41;102741.59;;;12.54;36.26
16120;BME280;12670;53.502;10.252;2023-02-28T15:47:45;102746.81;;;12.10;36.12
16120;BME280;12670;53.502;10.252;2023-02-28T15:50:50;102733.03;;;11.20;38.06
16120;BME280;12670;53.502;10.252;2023-02-28T15:53:57;102734.44;;;10.72;38.53
16120;BME280;12670;53.502;10.252;2023-02-28T15:57:04;102733.16;;;10.23;39.87
16120;BME280;12670;53.502;10.252;2023-02-28T16:00:12;102741.22;;;10.02;39.73
16120;BME280;12670;53.502;10.252;2023-02-28T16:03:26;102733.44;;;9.79;40.11
16120;BME280;12670;53.502;10.252;2023-02-28T16:06:37;102739.81;;;9.52;42.89
16120;BME280;12670;53.502;10.252;2023-02-28T16:09:41;102732.78;;;9.45;43.09
16120;BME280;12670;53.502;10.252;2023-02-28T16:12:44;102731.13;;;9.18;44.50
16120;BME280;12670;53.502;10.252;2023-02-28T16:15:47;102729.47;;;8.94;44.73
16120;BME280;12670;53.502;10.252;2023-02-28T16:18:53;102729.50;;;8.88;45.20
16120;BME280;12670;53.502;10.252;2023-02-28T16:21:56;102734.81;;;8.72;45.76
16120;BME280;12670;53.502;10.252;2023-02-28T16:25:00;102739.22;;;8.67;46.28
16120;BME280;12670;53.502;10.252;2023-02-28T16:28:08;102743.69;;;8.56;46.85